createdAt,value
2022-11-24T00:02:02.202Z,100949.60
2022-11-24T00:04:33.795Z,100945.40
2022-11-24T00:07:02.429Z,100944.80
2022-11-24T00:09:30.223Z,100937.20
2022-11-24T00:11:58.132Z,100934.20
2022-11-24T00:14:26.823Z,100937.40
2022-11-24T00:16:55.237Z,100935.40
2022-11-24T00:19:23.713Z,100928.20
2022-11-24T00:21:53.073Z,100936.60
2022-11-24T00:24:22.990Z,100932.60
2022-11-24T00:26:52.482Z,100935.40
2022-11-24T00:29:20.518Z,100931.80
2022-11-24T00:31:49.134Z,100933.60
2022-11-24T00:34:17.640Z,100932.60
2022-11-24T00:36:45.457Z,100929.60
2022-11-24T00:39:17.437Z,100927.60
2022-11-24T00:41:45.506Z,100935.20
2022-11-24T00:44:16.357Z,100939.80
2022-11-24T00:46:44.627Z,100935.60
2022-11-24T00:49:12.771Z,100937.20
2022-11-24T00:51:40.739Z,100939.60
2022-11-24T00:54:09.494Z,100934.20
2022-11-24T00:56:41.425Z,100926.20
2022-11-24T00:59:10.978Z,100925.00
2022-11-24T01:01:39.401Z,100925.40
2022-11-24T01:04:10.482Z,100927.20
2022-11-24T01:06:38.916Z,100926.80
2022-11-24T01:09:08.856Z,100928.60
2022-11-24T01:11:56.397Z,100934.60
2022-11-24T01:14:25.970Z,100940.40
2022-11-24T01:16:56.189Z,100936.40
2022-11-24T01:19:24.887Z,100942.80
2022-11-24T01:21:55.097Z,100944.80
2022-11-24T01:24:23.573Z,100942.80
2022-11-24T01:26:56.051Z,100939.20
2022-11-24T01:29:28.729Z,100935.80
2022-11-24T01:31:57.071Z,100941.00
2022-11-24T01:34:26.063Z,100938.20
2022-11-24T01:36:54.587Z,100937.80
2022-11-24T01:39:22.661Z,100934.20
2022-11-24T01:41:53.045Z,100931.00
2022-11-24T01:47:41.081Z,100932.60
2022-11-24T01:50:17.792Z,100929.20
2022-11-24T01:52:54.735Z,100922.60
2022-11-24T01:55:38.100Z,100918.60
2022-11-24T01:58:21.566Z,100918.80
2022-11-24T02:00:54.368Z,100930.60
2022-11-24T02:03:38.065Z,100931.60
2022-11-24T02:06:16.626Z,100938.80
2022-11-24T02:08:59.242Z,100944.40
2022-11-24T02:11:35.601Z,100946.60
2022-11-24T02:14:12.699Z,100949.60
2022-11-24T02:16:48.632Z,100949.80
2022-11-24T02:19:41.673Z,100946.60
2022-11-24T02:22:45.371Z,100945.40
2022-11-24T02:25:39.912Z,100948.00
2022-11-24T02:28:16.948Z,100946.80
2022-11-24T02:30:54.473Z,100955.00
2022-11-24T02:33:25.685Z,100951.40
2022-11-24T02:35:54.871Z,100948.00
2022-11-24T02:38:35.794Z,100947.00
2022-11-24T02:41:09.521Z,100945.20
2022-11-24T02:43:47.866Z,100943.40
2022-11-24T02:46:16.107Z,100946.80
2022-11-24T02:48:52.404Z,100943.40
2022-11-24T02:51:21.672Z,100940.40
2022-11-24T02:53:49.547Z,100947.60
2022-11-24T02:56:19.088Z,100944.60
2022-11-24T02:58:49.047Z,100945.20
2022-11-24T03:01:20.564Z,100945.20
2022-11-24T03:03:49.090Z,100946.00
2022-11-24T03:06:18.451Z,100943.60
2022-11-24T03:08:48.025Z,100948.60
2022-11-24T03:11:17.428Z,100944.20
2022-11-24T03:13:45.858Z,100944.60
2022-11-24T03:16:16.270Z,100946.80
2022-11-24T03:18:44.131Z,100949.00
2022-11-24T03:21:15.609Z,100944.80
2022-11-24T03:23:43.437Z,100942.40
2022-11-24T03:26:19.057Z,100938.80
2022-11-24T03:28:47.490Z,100937.80
2022-11-24T03:31:16.484Z,100936.20
2022-11-24T03:33:46.269Z,100937.60
2022-11-24T03:36:14.231Z,100933.40
2022-11-24T03:38:45.703Z,100930.20
2022-11-24T03:41:14.101Z,100924.60
2022-11-24T03:43:44.318Z,100929.20
2022-11-24T03:46:16.206Z,100934.00
2022-11-24T03:48:48.728Z,100930.40
2022-11-24T03:51:17.935Z,100939.00
2022-11-24T03:53:47.232Z,100936.80
2022-11-24T03:56:16.760Z,100932.80
2022-11-24T03:58:44.611Z,100938.40
2022-11-24T04:01:12.678Z,100934.60
2022-11-24T04:03:42.346Z,100931.40
2022-11-24T04:06:10.558Z,100926.60
2022-11-24T04:08:39.786Z,100931.80
2022-11-24T04:11:30.009Z,100938.20
2022-11-24T04:13:59.054Z,100932.80
2022-11-24T04:16:27.568Z,100934.40
2022-11-24T04:18:55.457Z,100928.00
2022-11-24T04:21:23.283Z,100928.80
2022-11-24T04:23:53.632Z,100930.80
2022-11-24T04:26:21.746Z,100939.40
2022-11-24T04:28:50.900Z,100945.20
2022-11-24T04:31:18.764Z,100950.80
2022-11-24T04:33:48.404Z,100954.80
2022-11-24T04:36:16.223Z,100958.40
2022-11-24T04:39:24.688Z,100960.60
2022-11-24T04:41:33.154Z,100969.00
2022-11-24T04:44:02.471Z,100969.80
2022-11-24T04:46:32.856Z,100977.00
2022-11-24T04:49:01.539Z,100978.00
2022-11-24T04:51:29.392Z,100979.80
2022-11-24T04:53:57.561Z,100983.00
2022-11-24T04:56:26.150Z,100982.60
2022-11-24T04:58:54.396Z,100978.40
2022-11-24T05:01:22.640Z,100969.60
2022-11-24T05:03:57.215Z,100970.60
2022-11-24T05:06:26.498Z,100977.40
2022-11-24T05:08:54.700Z,100983.60
2022-11-24T05:11:22.618Z,100989.60
2022-11-24T05:13:50.460Z,100985.80
2022-11-24T05:16:23.445Z,100991.20
2022-11-24T05:18:51.890Z,100995.00
2022-11-24T05:21:19.816Z,100996.20
2022-11-24T05:23:48.135Z,101001.60
2022-11-24T05:26:15.994Z,101005.80
2022-11-24T05:28:43.743Z,101007.80
2022-11-24T05:31:12.877Z,101004.20
2022-11-24T05:33:42.259Z,101004.00
2022-11-24T05:36:30.553Z,101003.40
2022-11-24T05:39:06.932Z,101003.00
2022-11-24T05:41:35.906Z,101003.00
2022-11-24T05:44:03.902Z,101003.00
2022-11-24T05:46:32.770Z,101003.60
2022-11-24T05:49:04.052Z,101009.60
2022-11-24T05:51:33.404Z,101010.60
2022-11-24T05:54:04.504Z,101008.40
2022-11-24T05:56:32.956Z,101012.00
2022-11-24T05:59:05.329Z,101011.00
2022-11-24T06:01:36.614Z,101022.00
2022-11-24T06:04:11.116Z,101022.20
2022-11-24T06:06:39.491Z,101025.00
2022-11-24T06:09:08.137Z,101026.80
2022-11-24T06:11:36.236Z,101025.80
2022-11-24T06:14:09.677Z,101027.80
2022-11-24T06:16:42.276Z,101033.80
2022-11-24T06:19:11.792Z,101029.00
2022-11-24T06:21:39.674Z,101031.00
2022-11-24T06:24:09.996Z,101030.20
2022-11-24T06:26:38.245Z,101033.20
2022-11-24T06:29:07.895Z,101032.00
2022-11-24T06:31:39.444Z,101034.00
2022-11-24T06:34:13.278Z,101025.20
2022-11-24T06:36:41.495Z,101033.80
2022-11-24T06:39:13.261Z,101028.20
2022-11-24T06:41:41.971Z,101033.20
2022-11-24T06:44:09.970Z,101035.60
2022-11-24T06:46:38.233Z,101035.20
2022-11-24T06:49:07.272Z,101038.00
2022-11-24T06:51:35.697Z,101043.40
2022-11-24T06:54:12.354Z,101049.40
2022-11-24T06:56:45.478Z,101045.20
2022-11-24T06:59:20.922Z,101054.60
2022-11-24T07:01:51.677Z,101054.20
2022-11-24T07:04:22.451Z,101057.40
2022-11-24T07:06:51.946Z,101061.00
2022-11-24T07:09:23.904Z,101067.00
2022-11-24T07:11:57.923Z,101071.40
2022-11-24T07:14:29.872Z,101075.20
2022-11-24T07:16:57.875Z,101081.80
2022-11-24T07:19:28.634Z,101083.20
2022-11-24T07:21:57.263Z,101083.20
2022-11-24T07:24:25.169Z,101083.60
2022-11-24T07:26:53.882Z,101076.00
2022-11-24T07:29:22.800Z,101083.80
2022-11-24T07:31:58.536Z,101086.00
2022-11-24T07:34:30.598Z,101091.40
2022-11-24T07:36:58.503Z,101097.20
2022-11-24T07:39:29.643Z,101098.20
2022-11-24T07:42:02.363Z,101093.60
2022-11-24T07:44:32.137Z,101099.20
2022-11-24T07:47:02.436Z,101104.40
2022-11-24T07:49:30.620Z,101104.80
2022-11-24T07:51:58.616Z,101109.40
2022-11-24T07:54:30.181Z,101110.20
2022-11-24T07:56:58.256Z,101114.20
2022-11-24T07:59:27.821Z,101117.00
2022-11-24T08:01:55.913Z,101115.00
2022-11-24T08:04:24.002Z,101123.40
2022-11-24T08:06:51.899Z,101125.60
2022-11-24T08:09:21.446Z,101128.00
2022-11-24T08:11:50.444Z,101132.00
2022-11-24T08:14:19.427Z,101133.20
2022-11-24T08:16:49.825Z,101137.60
2022-11-24T08:19:20.300Z,101139.20
2022-11-24T08:21:48.690Z,101148.00
2022-11-24T08:24:17.147Z,101150.20
2022-11-24T08:26:45.511Z,101155.80
2022-11-24T08:29:14.427Z,101156.60
2022-11-24T08:31:44.087Z,101154.80
2022-11-24T08:34:12.209Z,101150.40
2022-11-24T08:36:41.181Z,101147.80
2022-11-24T08:39:11.997Z,101147.00
2022-11-24T08:41:41.005Z,101153.20
2022-11-24T08:44:10.934Z,101152.40
2022-11-24T08:46:38.871Z,101150.40
2022-11-24T08:49:10.128Z,101153.40
2022-11-24T08:51:38.213Z,101157.80
2022-11-24T08:54:06.474Z,101158.20
2022-11-24T08:56:34.301Z,101156.40
2022-11-24T08:59:03.390Z,101158.40
2022-11-24T09:01:31.914Z,101161.20
2022-11-24T09:04:00.487Z,101155.40
2022-11-24T09:06:32.023Z,101147.20
2022-11-24T09:09:00.759Z,101154.40
2022-11-24T09:11:32.180Z,101157.60
2022-11-24T09:14:00.575Z,101150.80
2022-11-24T09:16:30.345Z,101160.60
2022-11-24T09:19:03.244Z,101155.40
2022-11-24T09:21:34.818Z,101162.20
2022-11-24T09:24:05.516Z,101165.40
2022-11-24T09:26:37.032Z,101161.00
2022-11-24T09:29:09.727Z,101168.40
2022-11-24T09:31:39.615Z,101169.20
2022-11-24T09:34:13.283Z,101174.80
2022-11-24T09:36:43.694Z,101175.20
2022-11-24T09:39:12.968Z,101168.00
2022-11-24T09:42:15.692Z,101175.80
2022-11-24T09:45:07.765Z,101173.80
2022-11-24T09:47:57.352Z,101175.80
2022-11-24T09:50:37.370Z,101174.20
2022-11-24T09:53:54.435Z,101177.60
2022-11-24T09:56:29.864Z,101188.20
2022-11-24T09:59:14.814Z,101188.60
2022-11-24T10:01:45.829Z,101189.00
2022-11-24T10:04:39.556Z,101184.60
2022-11-24T10:07:34.559Z,101187.80
2022-11-24T10:10:25.232Z,101187.60
2022-11-24T10:13:21.147Z,101187.00
2022-11-24T10:16:17.435Z,101183.60
2022-11-24T10:18:57.615Z,101190.00
2022-11-24T10:22:02.943Z,101187.60
2022-11-24T10:25:20.164Z,101192.00
2022-11-24T10:28:00.219Z,101189.20
2022-11-24T10:30:31.649Z,101194.20
2022-11-24T10:33:30.775Z,101200.00
2022-11-24T10:36:11.508Z,101200.60
2022-11-24T10:38:54.711Z,101204.60
2022-11-24T10:41:57.914Z,101205.00
2022-11-24T10:44:26.715Z,101206.60
2022-11-24T10:46:54.730Z,101205.00
2022-11-24T10:49:54.542Z,101205.60
2022-11-24T10:52:26.739Z,101209.60
2022-11-24T10:55:04.961Z,101209.00
2022-11-24T10:57:38.373Z,101208.40
2022-11-24T11:00:18.627Z,101204.60
2022-11-24T11:02:50.104Z,101207.00
2022-11-24T11:05:32.414Z,101205.40
2022-11-24T11:08:38.556Z,101206.00
2022-11-24T11:11:43.152Z,101199.80
2022-11-24T11:14:13.065Z,101197.60
2022-11-24T11:16:53.656Z,101198.00
2022-11-24T11:20:00.300Z,101192.20
2022-11-24T11:22:31.785Z,101194.20
2022-11-24T11:25:14.153Z,101195.40
2022-11-24T11:27:42.772Z,101194.20
2022-11-24T11:36:17.698Z,101202.20
2022-11-24T11:38:48.055Z,101205.40
2022-11-24T11:41:30.862Z,101214.80
2022-11-24T11:44:38.538Z,101214.60
2022-11-24T11:47:24.676Z,101207.00
2022-11-24T11:49:53.388Z,101217.40
2022-11-24T11:52:40.809Z,101215.80
2022-11-24T11:55:18.134Z,101216.60
2022-11-24T11:57:56.901Z,101218.60
2022-11-24T12:00:25.197Z,101226.60
2022-11-24T12:03:25.859Z,101227.40
2022-11-24T12:06:01.251Z,101224.80
2022-11-24T12:09:19.987Z,101230.40
2022-11-24T12:12:36.401Z,101223.40
2022-11-24T12:15:31.839Z,101219.80
2022-11-24T12:18:55.828Z,101218.40
2022-11-24T12:21:26.624Z,101219.60
2022-11-24T12:24:10.834Z,101219.00
2022-11-24T12:27:23.185Z,101221.20
2022-11-24T12:30:06.532Z,101218.60
2022-11-24T12:33:05.059Z,101212.60
2022-11-24T12:35:48.537Z,101216.20
2022-11-24T12:38:37.313Z,101222.20
2022-11-24T12:41:42.511Z,101230.60
2022-11-24T12:44:41.895Z,101233.60
2022-11-24T12:47:40.791Z,101232.40
2022-11-24T12:50:16.413Z,101232.80
2022-11-24T12:53:04.099Z,101236.20
2022-11-24T12:55:34.158Z,101230.80
2022-11-24T12:58:25.316Z,101233.80
2022-11-24T13:01:18.675Z,101241.00
2022-11-24T13:03:52.682Z,101246.80
2022-11-24T13:07:00.038Z,101247.00
2022-11-24T13:09:28.006Z,101247.60
2022-11-24T13:12:16.100Z,101253.40
2022-11-24T13:14:47.509Z,101249.20
2022-11-24T13:18:01.165Z,101255.00
2022-11-24T13:20:41.662Z,101255.00
2022-11-24T13:23:26.782Z,101258.80
2022-11-24T13:26:32.418Z,101261.40
2022-11-24T13:29:23.769Z,101261.60
2022-11-24T13:32:23.660Z,101252.40
2022-11-24T13:35:02.684Z,101259.60
2022-11-24T13:37:35.933Z,101254.00
2022-11-24T13:40:18.348Z,101259.20
2022-11-24T13:43:13.345Z,101261.00
2022-11-24T13:45:49.806Z,101257.00
2022-11-24T13:48:20.232Z,101254.20
2022-11-24T13:50:52.272Z,101250.20
2022-11-24T13:53:37.396Z,101250.40
2022-11-24T13:56:17.357Z,101249.60
2022-11-24T13:58:52.537Z,101259.40
2022-11-24T14:01:23.062Z,101262.20
2022-11-24T14:04:35.276Z,101271.00
2022-11-24T14:07:09.358Z,101269.00
2022-11-24T14:09:59.284Z,101269.80
2022-11-24T14:12:32.770Z,101273.00
2022-11-24T14:15:28.383Z,101275.80
2022-11-24T14:17:58.548Z,101280.40
2022-11-24T14:20:29.511Z,101278.60
2022-11-24T14:23:00.833Z,101282.20
2022-11-24T14:25:32.406Z,101281.20
2022-11-24T14:28:01.203Z,101279.80
2022-11-24T14:30:29.511Z,101282.60
2022-11-24T14:33:04.171Z,101284.60
2022-11-24T14:35:37.286Z,101289.60
2022-11-24T14:38:06.613Z,101292.20
2022-11-24T14:40:56.225Z,101292.20
2022-11-24T14:43:35.536Z,101292.40
2022-11-24T14:46:17.914Z,101294.20
2022-11-24T14:48:53.942Z,101298.20
2022-11-24T14:51:27.052Z,101299.60
2022-11-24T14:54:02.514Z,101302.40
2022-11-24T14:56:36.091Z,101300.00
2022-11-24T14:59:25.940Z,101301.20
2022-11-24T15:01:55.277Z,101307.20
2022-11-24T15:04:54.432Z,101306.80
2022-11-24T15:07:29.824Z,101300.00
2022-11-24T15:10:03.731Z,101302.80
2022-11-24T15:12:50.160Z,101298.00
2022-11-24T15:15:22.771Z,101296.00
2022-11-24T15:17:55.979Z,101297.60
2022-11-24T15:20:43.199Z,101296.80
2022-11-24T15:23:24.875Z,101305.00
2022-11-24T15:26:02.041Z,101311.60
2022-11-24T15:28:31.795Z,101316.00
2022-11-24T15:31:12.806Z,101312.00
2022-11-24T15:33:42.580Z,101310.00
2022-11-24T15:36:14.107Z,101305.00
2022-11-24T15:38:43.201Z,101304.20
2022-11-24T15:41:25.209Z,101305.20
2022-11-24T15:44:01.424Z,101313.80
2022-11-24T15:46:38.052Z,101304.80
2022-11-24T15:49:08.174Z,101308.00
2022-11-24T15:51:47.366Z,101309.60
2022-11-24T15:54:23.086Z,101312.00
2022-11-24T15:56:51.975Z,101314.20
2022-11-24T15:59:21.444Z,101318.60
2022-11-24T16:01:51.094Z,101319.80
2022-11-24T16:04:19.923Z,101324.80
2022-11-24T16:06:48.498Z,101325.20
2022-11-24T16:09:17.444Z,101333.20
2022-11-24T16:11:45.852Z,101339.80
2022-11-24T16:14:15.025Z,101340.20
2022-11-24T16:16:45.052Z,101340.20
2022-11-24T16:19:15.216Z,101346.40
2022-11-24T16:21:43.423Z,101351.40
2022-11-24T16:24:13.826Z,101357.40
2022-11-24T16:26:42.072Z,101356.20
2022-11-24T16:29:12.477Z,101353.00
2022-11-24T16:31:44.968Z,101356.40
2022-11-24T16:34:16.588Z,101356.80
2022-11-24T16:36:47.641Z,101365.00
2022-11-24T16:39:17.253Z,101362.80
2022-11-24T16:41:49.034Z,101366.80
2022-11-24T16:44:17.087Z,101362.40
2022-11-24T16:46:47.136Z,101362.00
2022-11-24T16:49:15.783Z,101356.60
2022-11-24T16:51:48.302Z,101360.80
2022-11-24T16:54:17.027Z,101357.00
2022-11-24T16:56:45.247Z,101359.40
2022-11-24T16:59:15.816Z,101359.60
2022-11-24T17:01:50.683Z,101360.60
2022-11-24T17:04:20.522Z,101356.00
2022-11-24T17:06:52.710Z,101359.80
2022-11-24T17:12:05.723Z,101358.40
2022-11-24T17:14:33.820Z,101356.60
2022-11-24T17:17:03.396Z,101362.20
2022-11-24T17:19:33.197Z,101363.60
2022-11-24T17:22:01.760Z,101367.40
2022-11-24T17:24:30.147Z,101367.00
2022-11-24T17:27:01.707Z,101373.40
2022-11-24T17:29:30.301Z,101379.80
2022-11-24T17:32:01.386Z,101381.80
2022-11-24T17:34:32.386Z,101383.00
2022-11-24T17:37:02.510Z,101388.20
2022-11-24T17:39:30.642Z,101397.20
2022-11-24T17:41:58.654Z,101400.20
2022-11-24T17:44:27.324Z,101403.80
2022-11-24T17:46:56.118Z,101401.80
2022-11-24T17:49:25.018Z,101400.00
2022-11-24T17:51:53.863Z,101404.60
2022-11-24T17:57:11.519Z,101399.00
2022-11-24T17:59:41.736Z,101402.60
2022-11-24T18:02:10.197Z,101400.20
2022-11-24T18:04:38.251Z,101398.40
2022-11-24T18:07:09.197Z,101398.40
2022-11-24T18:09:38.312Z,101402.60
2022-11-24T18:12:08.106Z,101410.00
2022-11-24T18:14:37.823Z,101407.00
2022-11-24T18:17:10.701Z,101405.40
2022-11-24T18:19:38.913Z,101403.20
2022-11-24T18:22:08.458Z,101406.40
2022-11-24T18:24:40.933Z,101405.00
2022-11-24T18:27:11.672Z,101406.60
2022-11-24T18:29:42.288Z,101403.40
2022-11-24T18:32:10.463Z,101398.20
2022-11-24T18:34:40.778Z,101396.00
2022-11-24T18:37:14.390Z,101402.60
2022-11-24T18:39:42.797Z,101405.40
2022-11-24T18:42:13.631Z,101408.00
2022-11-24T18:44:51.117Z,101410.80
2022-11-24T18:47:27.835Z,101416.00
2022-11-24T18:49:59.953Z,101418.80
2022-11-24T18:52:29.944Z,101424.40
2022-11-24T18:55:04.279Z,101429.80
2022-11-24T18:57:37.611Z,101430.20
2022-11-24T19:00:08.250Z,101429.80
2022-11-24T19:02:38.338Z,101429.60
2022-11-24T19:05:08.895Z,101430.80
2022-11-24T19:07:38.369Z,101434.00
2022-11-24T19:10:09.259Z,101433.80
2022-11-24T19:12:37.851Z,101427.00
2022-11-24T19:15:10.594Z,101420.60
2022-11-24T19:17:53.532Z,101416.20
2022-11-24T19:20:21.765Z,101417.80
2022-11-24T19:22:54.779Z,101410.80
2022-11-24T19:25:25.163Z,101416.00
2022-11-24T19:27:53.579Z,101414.00
2022-11-24T19:30:21.680Z,101427.00
2022-11-24T19:33:01.633Z,101426.60
2022-11-24T19:35:30.570Z,101425.00
2022-11-24T19:38:01.124Z,101426.20
2022-11-24T19:40:30.723Z,101426.80
2022-11-24T19:42:58.968Z,101429.80
2022-11-24T19:45:29.931Z,101433.80
2022-11-24T19:47:58.958Z,101437.20
2022-11-24T19:50:27.959Z,101435.40
2022-11-24T19:52:56.436Z,101440.60
2022-11-24T19:55:26.055Z,101442.60
2022-11-24T19:57:56.670Z,101444.80
2022-11-24T20:00:29.138Z,101444.40
2022-11-24T20:03:00.254Z,101446.80
2022-11-24T20:05:28.392Z,101448.00
2022-11-24T20:07:56.636Z,101452.20
2022-11-24T20:10:24.921Z,101457.20
2022-11-24T20:12:52.913Z,101460.20
2022-11-24T20:15:22.672Z,101462.20
2022-11-24T20:17:52.912Z,101469.60
2022-11-24T20:20:23.773Z,101471.20
2022-11-24T20:22:57.019Z,101470.00
2022-11-24T20:25:29.510Z,101472.00
2022-11-24T20:28:01.871Z,101466.60
2022-11-24T20:30:30.303Z,101462.80
2022-11-24T20:33:00.119Z,101461.40
2022-11-24T20:35:28.782Z,101462.40
2022-11-24T20:38:01.385Z,101464.40
2022-11-24T20:40:30.719Z,101461.80
2022-11-24T20:42:58.743Z,101463.20
2022-11-24T20:45:28.375Z,101465.40
2022-11-24T20:47:58.407Z,101471.00
2022-11-24T20:50:30.243Z,101468.60
2022-11-24T20:53:02.061Z,101466.00
2022-11-24T20:55:33.657Z,101465.00
2022-11-24T20:58:02.869Z,101457.60
2022-11-24T21:00:31.003Z,101453.80
2022-11-24T21:03:00.908Z,101453.20
2022-11-24T21:05:30.783Z,101453.80
2022-11-24T21:08:00.046Z,101449.20
2022-11-24T21:10:28.691Z,101449.20
2022-11-24T21:12:57.673Z,101456.00
2022-11-24T21:15:26.063Z,101454.60
2022-11-24T21:17:55.524Z,101455.40
2022-11-24T21:20:25.875Z,101463.20
2022-11-24T21:22:55.526Z,101467.00
2022-11-24T21:25:24.904Z,101470.40
2022-11-24T21:27:57.758Z,101470.00
2022-11-24T21:30:25.815Z,101479.20
2022-11-24T21:32:54.059Z,101477.40
2022-11-24T21:35:23.222Z,101484.60
2022-11-24T21:37:52.202Z,101487.80
2022-11-24T21:40:21.318Z,101492.20
2022-11-24T21:42:50.852Z,101492.80
2022-11-24T21:45:20.207Z,101494.00
2022-11-24T21:47:51.965Z,101497.80
2022-11-24T21:50:19.947Z,101491.60
2022-11-24T21:52:47.804Z,101491.00
2022-11-24T21:55:15.760Z,101481.20
2022-11-24T21:57:44.184Z,101482.60
2022-11-24T22:00:17.918Z,101485.20
2022-11-24T22:02:49.252Z,101489.00
2022-11-24T22:05:17.379Z,101494.20
2022-11-24T22:07:45.478Z,101496.40
2022-11-24T22:10:13.338Z,101494.40
2022-11-24T22:12:41.267Z,101502.40
2022-11-24T22:15:11.115Z,101504.00
2022-11-24T22:17:40.113Z,101508.20
2022-11-24T22:20:09.690Z,101510.40
2022-11-24T22:22:38.477Z,101513.80
2022-11-24T22:25:07.358Z,101514.80
2022-11-24T22:27:39.389Z,101523.00
2022-11-24T22:30:11.270Z,101522.80
2022-11-24T22:32:39.199Z,101519.00
2022-11-24T22:35:09.953Z,101518.60
2022-11-24T22:37:38.211Z,101521.80
2022-11-24T22:40:08.968Z,101522.20
2022-11-24T22:42:37.348Z,101522.40
2022-11-24T22:45:08.196Z,101518.20
2022-11-24T22:47:36.659Z,101519.20
2022-11-24T22:50:06.663Z,101515.00
2022-11-24T22:52:41.166Z,101521.40
2022-11-24T22:55:09.207Z,101523.60
2022-11-24T22:57:37.291Z,101533.80
2022-11-24T23:00:09.663Z,101540.40
2022-11-24T23:02:38.555Z,101536.20
2022-11-24T23:05:09.803Z,101539.20
2022-11-24T23:07:37.887Z,101538.20
2022-11-24T23:10:06.808Z,101534.00
2022-11-24T23:12:34.940Z,101535.00
2022-11-24T23:15:04.942Z,101537.00
2022-11-24T23:17:35.855Z,101535.20
2022-11-24T23:20:07.513Z,101534.20
2022-11-24T23:22:35.978Z,101535.60
2022-11-24T23:25:04.715Z,101527.00
2022-11-24T23:27:34.800Z,101522.20
2022-11-24T23:30:04.662Z,101530.20
2022-11-24T23:32:36.740Z,101522.40
2022-11-24T23:35:10.920Z,101518.60
2022-11-24T23:38:06.591Z,101524.60
2022-11-24T23:40:36.126Z,101523.20
2022-11-24T23:43:06.456Z,101521.20
2022-11-24T23:45:37.146Z,101524.40
2022-11-24T23:48:05.483Z,101526.40
2022-11-24T23:50:37.370Z,101527.00
2022-11-24T23:53:05.320Z,101528.00
2022-11-24T23:55:33.165Z,101526.20
2022-11-24T23:58:01.313Z,101519.60
